sensor_id;sensor_type;location;lat;lon;timestamp;pressure;altitude;pressure_sealevel;temperature;humidity
21594;BME280;10959;51.328;7.322;2023-04-06T00:02:08;98959.63;;;5.62;52.84
21594;BME280;10959;51.328;7.322;2023-04-06T00:04:36;98965.75;;;5.65;52.63
21594;BME280;10959;51.328;7.322;2023-04-06T00:07:02;98960.47;;;5.64;52.50
21594;BME280;10959;51.328;7.322;2023-04-06T00:09:29;98960.41;;;5.65;52.78
21594;BME280;10959;51.328;7.322;2023-04-06T00:11:55;98963.84;;;5.70;52.46
21594;BME280;10959;51.328;7.322;2023-04-06T00:14:23;98961.28;;;5.67;52.93
21594;BME280;10959;51.328;7.322;2023-04-06T00:16:49;98959.25;;;5.76;52.82
21594;BME280;10959;51.328;7.322;2023-04-06T00:19:16;98966.44;;;5.74;52.59
21594;BME280;10959;51.328;7.322;2023-04-06T00:21:43;98960.19;;;5.75;52.83
21594;BME280;10959;51.328;7.322;2023-04-06T00:24:10;98960.22;;;5.73;52.65
21594;BME280;10959;51.328;7.322;2023-04-06T00:26:37;98956.66;;;5.72;52.82
21594;BME280;10959;51.328;7.322;2023-04-06T00:29:03;98953.16;;;5.70;52.83
21594;BME280;10959;51.328;7.322;2023-04-06T00:31:30;98950.34;;;5.75;52.45
21594;BME280;10959;51.328;7.322;2023-04-06T00:33:57;98947.56;;;5.80;52.65
21594;BME280;10959;51.328;7.322;2023-04-06T00:36:24;98947.47;;;5.83;52.55
21594;BME280;10959;51.328;7.322;2023-04-06T00:38:52;98942.13;;;5.83;52.56
21594;BME280;10959;51.328;7.322;2023-04-06T00:41:19;98934.94;;;5.85;52.21
21594;BME280;10959;51.328;7.322;2023-04-06T00:43:46;98938.44;;;5.87;52.35
21594;BME280;10959;51.328;7.322;2023-04-06T00:46:13;98933.09;;;5.87;52.45
21594;BME280;10959;51.328;7.322;2023-04-06T00:48:39;98931.31;;;5.87;52.84
21594;BME280;10959;51.328;7.322;2023-04-06T00:51:06;98931.38;;;5.86;52.54
21594;BME280;10959;51.328;7.322;2023-04-06T00:53:32;98929.59;;;5.85;52.39
21594;BME280;10959;51.328;7.322;2023-04-06T00:56:00;98928.72;;;5.84;52.50
21594;BME280;10959;51.328;7.322;2023-04-06T00:58:26;98922.59;;;5.81;52.43
21594;BME280;10959;51.328;7.322;2023-04-06T01:00:53;98924.44;;;5.79;52.44
21594;BME280;10959;51.328;7.322;2023-04-06T01:03:19;98913.75;;;5.79;52.35
21594;BME280;10959;51.328;7.322;2023-04-06T01:05:46;98918.28;;;5.75;52.41
21594;BME280;10959;51.328;7.322;2023-04-06T01:08:12;98922.69;;;5.78;52.51
21594;BME280;10959;51.328;7.322;2023-04-06T01:10:40;98909.31;;;5.78;52.52
21594;BME280;10959;51.328;7.322;2023-04-06T01:13:07;98910.22;;;5.77;52.35
21594;BME280;10959;51.328;7.322;2023-04-06T01:15:35;98903.09;;;5.77;52.29
21594;BME280;10959;51.328;7.322;2023-04-06T01:18:03;98899.59;;;5.75;52.18
21594;BME280;10959;51.328;7.322;2023-04-06T01:20:32;98903.22;;;5.72;52.20
21594;BME280;10959;51.328;7.322;2023-04-06T01:22:59;98897.78;;;5.76;52.27
21594;BME280;10959;51.328;7.322;2023-04-06T01:25:26;98900.88;;;5.62;52.34
21594;BME280;10959;51.328;7.322;2023-04-06T01:27:52;98898.06;;;5.66;52.29
21594;BME280;10959;51.328;7.322;2023-04-06T01:30:19;98889.13;;;5.67;52.33
21594;BME280;10959;51.328;7.322;2023-04-06T01:32:45;98884.63;;;5.69;52.04
21594;BME280;10959;51.328;7.322;2023-04-06T01:35:12;98885.38;;;5.75;52.06
21594;BME280;10959;51.328;7.322;2023-04-06T01:37:38;98886.28;;;5.74;51.96
21594;BME280;10959;51.328;7.322;2023-04-06T01:40:08;98888.16;;;5.70;52.06
21594;BME280;10959;51.328;7.322;2023-04-06T01:42:34;98887.47;;;5.63;52.12
21594;BME280;10959;51.328;7.322;2023-04-06T01:45:01;98887.47;;;5.63;52.24
21594;BME280;10959;51.328;7.322;2023-04-06T01:47:27;98882.91;;;5.67;52.07
21594;BME280;10959;51.328;7.322;2023-04-06T01:49:54;98890.88;;;5.68;51.89
21594;BME280;10959;51.328;7.322;2023-04-06T01:52:20;98886.50;;;5.66;51.80
21594;BME280;10959;51.328;7.322;2023-04-06T01:54:47;98883.69;;;5.70;51.99
21594;BME280;10959;51.328;7.322;2023-04-06T01:57:14;98881.94;;;5.69;51.84
21594;BME280;10959;51.328;7.322;2023-04-06T01:59:41;98880.97;;;5.72;51.72
21594;BME280;10959;51.328;7.322;2023-04-06T02:02:07;98884.66;;;5.68;51.64
21594;BME280;10959;51.328;7.322;2023-04-06T02:04:34;98880.38;;;5.62;51.80
21594;BME280;10959;51.328;7.322;2023-04-06T02:07:00;98876.69;;;5.66;51.74
21594;BME280;10959;51.328;7.322;2023-04-06T02:09:26;98873.03;;;5.70;51.75
21594;BME280;10959;51.328;7.322;2023-04-06T02:11:53;98873.03;;;5.70;51.76
21594;BME280;10959;51.328;7.322;2023-04-06T02:14:25;98873.16;;;5.64;51.72
21594;BME280;10959;51.328;7.322;2023-04-06T02:16:52;98869.59;;;5.65;51.57
21594;BME280;10959;51.328;7.322;2023-04-06T02:19:18;98876.69;;;5.66;51.67
21594;BME280;10959;51.328;7.322;2023-04-06T02:21:44;98877.56;;;5.67;51.50
21594;BME280;10959;51.328;7.322;2023-04-06T02:24:11;98874.94;;;5.65;51.76
21594;BME280;10959;51.328;7.322;2023-04-06T02:26:37;98872.31;;;5.64;51.96
21594;BME280;10959;51.328;7.322;2023-04-06T02:29:04;98866.91;;;5.65;51.96
21594;BME280;10959;51.328;7.322;2023-04-06T02:31:32;98875.03;;;5.62;51.89
21594;BME280;10959;51.328;7.322;2023-04-06T02:33:58;98865.25;;;5.61;52.08
21594;BME280;10959;51.328;7.322;2023-04-06T02:36:25;98868.81;;;5.62;51.86
21594;BME280;10959;51.328;7.322;2023-04-06T02:38:51;98861.81;;;5.58;51.93
21594;BME280;10959;51.328;7.322;2023-04-06T02:41:18;98861.97;;;5.51;51.91
21594;BME280;10959;51.328;7.322;2023-04-06T02:43:44;98859.44;;;5.47;52.06
21594;BME280;10959;51.328;7.322;2023-04-06T02:46:11;98863.09;;;5.43;52.18
21594;BME280;10959;51.328;7.322;2023-04-06T02:48:38;98858.75;;;5.39;52.27
21594;BME280;10959;51.328;7.322;2023-04-06T02:51:05;98860.56;;;5.38;52.33
21594;BME280;10959;51.328;7.322;2023-04-06T02:53:31;98858.94;;;5.32;52.61
21594;BME280;10959;51.328;7.322;2023-04-06T02:55:58;98857.19;;;5.31;52.43
21594;BME280;10959;51.328;7.322;2023-04-06T02:58:24;98855.56;;;5.26;52.67
21594;BME280;10959;51.328;7.322;2023-04-06T03:00:51;98853.81;;;5.25;52.58
21594;BME280;10959;51.328;7.322;2023-04-06T03:03:17;98856.53;;;5.23;52.59
21594;BME280;10959;51.328;7.322;2023-04-06T03:05:45;98856.59;;;5.20;52.70
21594;BME280;10959;51.328;7.322;2023-04-06T03:08:12;98849.53;;;5.19;52.74
21594;BME280;10959;51.328;7.322;2023-04-06T03:10:39;98853.19;;;5.15;52.85
21594;BME280;10959;51.328;7.322;2023-04-06T03:13:05;98847.81;;;5.16;52.58
21594;BME280;10959;51.328;7.322;2023-04-06T03:15:32;98844.41;;;5.10;52.63
21594;BME280;10959;51.328;7.322;2023-04-06T03:17:58;98851.59;;;5.08;52.86
21594;BME280;10959;51.328;7.322;2023-04-06T03:20:25;98848.06;;;5.06;52.82
21594;BME280;10959;51.328;7.322;2023-04-06T03:22:52;98851.75;;;5.01;52.73
21594;BME280;10959;51.328;7.322;2023-04-06T03:25:19;98846.50;;;4.98;53.11
21594;BME280;10959;51.328;7.322;2023-04-06T03:27:45;98845.63;;;4.98;53.10
21594;BME280;10959;51.328;7.322;2023-04-06T03:30:12;98848.34;;;4.96;53.18
21594;BME280;10959;51.328;7.322;2023-04-06T03:32:39;98848.44;;;4.93;53.37
21594;BME280;10959;51.328;7.322;2023-04-06T03:35:05;98845.72;;;4.95;53.14
21594;BME280;10959;51.328;7.322;2023-04-06T03:37:32;98846.66;;;4.92;53.04
21594;BME280;10959;51.328;7.322;2023-04-06T03:40:00;98855.50;;;4.94;52.97
21594;BME280;10959;51.328;7.322;2023-04-06T03:42:26;98851.06;;;4.95;52.95
21594;BME280;10959;51.328;7.322;2023-04-06T03:44:53;98852.00;;;4.92;52.85
21594;BME280;10959;51.328;7.322;2023-04-06T03:47:19;98852.88;;;4.93;52.76
21594;BME280;10959;51.328;7.322;2023-04-06T03:49:46;98852.09;;;4.89;52.70
21594;BME280;10959;51.328;7.322;2023-04-06T03:52:12;98852.09;;;4.89;52.86
21594;BME280;10959;51.328;7.322;2023-04-06T03:54:39;98852.16;;;4.86;52.92
21594;BME280;10959;51.328;7.322;2023-04-06T03:57:06;98848.56;;;4.87;53.01
21594;BME280;10959;51.328;7.322;2023-04-06T03:59:33;98853.91;;;4.87;53.07
21594;BME280;10959;51.328;7.322;2023-04-06T04:02:00;98849.50;;;4.86;52.79
21594;BME280;10959;51.328;7.322;2023-04-06T04:04:26;98859.31;;;4.84;53.08
21594;BME280;10959;51.328;7.322;2023-04-06T04:06:53;98848.72;;;4.81;53.25
21594;BME280;10959;51.328;7.322;2023-04-06T04:09:19;98854.16;;;4.78;53.10
21594;BME280;10959;51.328;7.322;2023-04-06T04:11:45;98854.06;;;4.81;53.16
21594;BME280;10959;51.328;7.322;2023-04-06T04:14:13;98855.97;;;4.76;53.14
21594;BME280;10959;51.328;7.322;2023-04-06T04:16:40;98852.56;;;4.71;53.19
21594;BME280;10959;51.328;7.322;2023-04-06T04:19:06;98854.38;;;4.68;53.34
21594;BME280;10959;51.328;7.322;2023-04-06T04:21:33;98855.97;;;4.76;53.25
21594;BME280;10959;51.328;7.322;2023-04-06T04:23:59;98850.56;;;4.79;53.01
21594;BME280;10959;51.328;7.322;2023-04-06T04:26:26;98852.31;;;4.80;52.86
21594;BME280;10959;51.328;7.322;2023-04-06T04:28:52;98848.66;;;4.84;52.89
21594;BME280;10959;51.328;7.322;2023-04-06T04:31:20;98850.41;;;4.85;52.65
21594;BME280;10959;51.328;7.322;2023-04-06T04:33:47;98845.13;;;4.83;52.70
21594;BME280;10959;51.328;7.322;2023-04-06T04:36:14;98848.56;;;4.87;52.79
21594;BME280;10959;51.328;7.322;2023-04-06T04:38:40;98843.16;;;4.90;52.78
21594;BME280;10959;51.328;7.322;2023-04-06T04:41:06;98843.22;;;4.87;52.69
21594;BME280;10959;51.328;7.322;2023-04-06T04:43:33;98837.88;;;4.87;52.78
21594;BME280;10959;51.328;7.322;2023-04-06T04:45:59;98843.22;;;4.87;52.76
21594;BME280;10959;51.328;7.322;2023-04-06T04:48:27;98841.50;;;4.86;52.59
21594;BME280;10959;51.328;7.322;2023-04-06T04:50:53;98838.91;;;4.81;52.43
21594;BME280;10959;51.328;7.322;2023-04-06T04:53:20;98842.38;;;4.87;52.40
21594;BME280;10959;51.328;7.322;2023-04-06T04:55:47;98836.06;;;4.89;52.39
21594;BME280;10959;51.328;7.322;2023-04-06T04:58:13;98836.06;;;4.89;52.10
21594;BME280;10959;51.328;7.322;2023-04-06T05:00:41;98843.22;;;4.87;52.26
21594;BME280;10959;51.328;7.322;2023-04-06T05:03:08;98837.84;;;4.90;51.98
21594;BME280;10959;51.328;7.322;2023-04-06T05:05:36;98841.38;;;4.91;52.09
21594;BME280;10959;51.328;7.322;2023-04-06T05:08:03;98841.31;;;4.92;51.96
21594;BME280;10959;51.328;7.322;2023-04-06T05:10:30;98836.97;;;4.88;52.08
21594;BME280;10959;51.328;7.322;2023-04-06T05:12:57;98839.75;;;4.85;51.84
21594;BME280;10959;51.328;7.322;2023-04-06T05:15:23;98837.84;;;4.90;51.87
21594;BME280;10959;51.328;7.322;2023-04-06T05:17:50;98838.63;;;4.94;51.57
21594;BME280;10959;51.328;7.322;2023-04-06T05:20:16;98838.69;;;4.91;51.58
21594;BME280;10959;51.328;7.322;2023-04-06T05:22:44;98842.91;;;4.99;51.47
21594;BME280;10959;51.328;7.322;2023-04-06T05:25:11;98839.25;;;5.04;51.22
21594;BME280;10959;51.328;7.322;2023-04-06T05:27:37;98835.69;;;5.05;51.37
21594;BME280;10959;51.328;7.322;2023-04-06T05:30:05;98839.00;;;5.13;51.19
21594;BME280;10959;51.328;7.322;2023-04-06T05:32:32;98839.16;;;5.07;51.07
21594;BME280;10959;51.328;7.322;2023-04-06T05:34:58;98833.81;;;5.07;50.56
21594;BME280;10959;51.328;7.322;2023-04-06T05:37:25;98837.59;;;4.99;51.08
21594;BME280;10959;51.328;7.322;2023-04-06T05:39:53;98839.63;;;5.23;50.77
21594;BME280;10959;51.328;7.322;2023-04-06T05:42:19;98834.81;;;5.35;50.55
21594;BME280;10959;51.328;7.322;2023-04-06T05:44:46;98838.78;;;5.53;50.27
21594;BME280;10959;51.328;7.322;2023-04-06T05:47:12;98836.16;;;5.52;50.37
21594;BME280;10959;51.328;7.322;2023-04-06T05:49:39;98834.13;;;5.60;50.05
21594;BME280;10959;51.328;7.322;2023-04-06T05:52:07;98843.84;;;5.63;49.72
21594;BME280;10959;51.328;7.322;2023-04-06T05:54:35;98836.47;;;5.71;49.69
21594;BME280;10959;51.328;7.322;2023-04-06T05:57:03;98844.97;;;5.85;49.42
21594;BME280;10959;51.328;7.322;2023-04-06T05:59:29;98845.50;;;5.98;48.92
21594;BME280;10959;51.328;7.322;2023-04-06T06:01:56;98854.06;;;6.10;49.07
21594;BME280;10959;51.328;7.322;2023-04-06T06:04:22;98851.19;;;6.16;49.03
21594;BME280;10959;51.328;7.322;2023-04-06T06:06:49;98846.31;;;6.30;48.77
21594;BME280;10959;51.328;7.322;2023-04-06T06:09:15;98848.41;;;6.47;48.70
21594;BME280;10959;51.328;7.322;2023-04-06T06:11:42;98854.19;;;6.63;48.63
21594;BME280;10959;51.328;7.322;2023-04-06T06:14:09;98843.94;;;6.76;48.04
21594;BME280;10959;51.328;7.322;2023-04-06T06:16:36;98851.91;;;6.78;48.16
21594;BME280;10959;51.328;7.322;2023-04-06T06:19:02;98849.66;;;6.92;48.41
21594;BME280;10959;51.328;7.322;2023-04-06T06:21:29;98849.19;;;7.06;47.88
21594;BME280;10959;51.328;7.322;2023-04-06T06:23:55;98846.44;;;7.07;47.62
21594;BME280;10959;51.328;7.322;2023-04-06T06:26:22;98840.69;;;7.18;47.50
21594;BME280;10959;51.328;7.322;2023-04-06T06:28:48;98839.97;;;7.38;47.24
21594;BME280;10959;51.328;7.322;2023-04-06T06:31:16;98846.59;;;7.53;47.28
21594;BME280;10959;51.328;7.322;2023-04-06T06:33:45;98846.91;;;7.69;47.55
21594;BME280;10959;51.328;7.322;2023-04-06T06:36:15;98842.59;;;7.89;46.87
21594;BME280;10959;51.328;7.322;2023-04-06T06:38:41;98844.75;;;8.03;46.90
21594;BME280;10959;51.328;7.322;2023-04-06T06:41:08;98851.91;;;8.02;46.72
21594;BME280;10959;51.328;7.322;2023-04-06T06:43:34;98847.41;;;8.26;46.73
21594;BME280;10959;51.328;7.322;2023-04-06T06:46:01;98841.97;;;8.28;46.40
21594;BME280;10959;51.328;7.322;2023-04-06T06:48:29;98847.44;;;8.48;46.17
21594;BME280;10959;51.328;7.322;2023-04-06T06:50:56;98843.19;;;8.65;46.23
21594;BME280;10959;51.328;7.322;2023-04-06T06:53:22;98842.44;;;8.84;45.34
21594;BME280;10959;51.328;7.322;2023-04-06T06:55:49;98848.03;;;8.99;45.63
21594;BME280;10959;51.328;7.322;2023-04-06T06:58:17;98840.66;;;9.05;45.16
21594;BME280;10959;51.328;7.322;2023-04-06T07:00:44;98841.34;;;9.30;45.53
21594;BME280;10959;51.328;7.322;2023-04-06T07:03:11;98846.91;;;9.46;45.23
21594;BME280;10959;51.328;7.322;2023-04-06T07:05:39;98843.16;;;9.50;44.42
21594;BME280;10959;51.328;7.322;2023-04-06T07:08:14;98835.88;;;9.52;44.50
21594;BME280;10959;51.328;7.322;2023-04-06T07:10:40;98836.47;;;9.59;44.33
21594;BME280;10959;51.328;7.322;2023-04-06T07:13:07;98847.78;;;9.86;45.33
21594;BME280;10959;51.328;7.322;2023-04-06T07:15:33;98845.25;;;10.02;44.37
21594;BME280;10959;51.328;7.322;2023-04-06T07:18:00;98843.69;;;10.17;43.99
21594;BME280;10959;51.328;7.322;2023-04-06T07:20:26;98844.00;;;10.29;42.90
21594;BME280;10959;51.328;7.322;2023-04-06T07:22:54;98844.97;;;10.28;43.17
21594;BME280;10959;51.328;7.322;2023-04-06T07:25:20;98836.75;;;10.31;43.05
21594;BME280;10959;51.328;7.322;2023-04-06T07:27:47;98829.41;;;10.53;43.20
21594;BME280;10959;51.328;7.322;2023-04-06T07:30:14;98838.78;;;10.81;43.46
21594;BME280;10959;51.328;7.322;2023-04-06T07:32:40;98834.63;;;10.93;42.77
21594;BME280;10959;51.328;7.322;2023-04-06T07:35:07;98831.16;;;11.26;43.50
21594;BME280;10959;51.328;7.322;2023-04-06T07:37:33;98822.63;;;11.51;42.95
21594;BME280;10959;51.328;7.322;2023-04-06T07:40:01;98822.19;;;11.76;43.07
21594;BME280;10959;51.328;7.322;2023-04-06T07:42:28;98826.44;;;11.98;42.55
21594;BME280;10959;51.328;7.322;2023-04-06T07:44:54;98833.59;;;12.15;42.20
21594;BME280;10959;51.328;7.322;2023-04-06T07:47:22;98827.00;;;12.37;42.24
21594;BME280;10959;51.328;7.322;2023-04-06T07:49:49;98827.88;;;12.53;41.90
21594;BME280;10959;51.328;7.322;2023-04-06T07:52:16;98821.22;;;12.75;41.65
21594;BME280;10959;51.328;7.322;2023-04-06T07:54:45;98813.69;;;12.80;40.46
21594;BME280;10959;51.328;7.322;2023-04-06T07:57:12;98813.00;;;12.92;40.43
21594;BME280;10959;51.328;7.322;2023-04-06T07:59:39;98825.47;;;12.95;40.71
21594;BME280;10959;51.328;7.322;2023-04-06T08:02:06;98821.34;;;13.04;40.02
21594;BME280;10959;51.328;7.322;2023-04-06T08:04:32;98820.09;;;13.09;39.62
21594;BME280;10959;51.328;7.322;2023-04-06T08:06:59;98820.41;;;13.19;39.41
21594;BME280;10959;51.328;7.322;2023-04-06T08:09:25;98817.41;;;13.40;40.15
21594;BME280;10959;51.328;7.322;2023-04-06T08:11:52;98819.25;;;13.54;39.84
21594;BME280;10959;51.328;7.322;2023-04-06T08:14:20;98818.00;;;13.59;38.92
21594;BME280;10959;51.328;7.322;2023-04-06T08:16:46;98818.97;;;13.73;39.37
21594;BME280;10959;51.328;7.322;2023-04-06T08:19:13;98818.53;;;13.95;38.84
21594;BME280;10959;51.328;7.322;2023-04-06T08:21:42;98825.09;;;14.05;38.71
21594;BME280;10959;51.328;7.322;2023-04-06T08:24:08;98812.75;;;14.28;38.87
21594;BME280;10959;51.328;7.322;2023-04-06T08:26:35;98816.41;;;14.42;39.05
21594;BME280;10959;51.328;7.322;2023-04-06T08:29:02;98820.06;;;14.69;38.95
21594;BME280;10959;51.328;7.322;2023-04-06T08:31:30;98807.97;;;14.88;38.71
21594;BME280;10959;51.328;7.322;2023-04-06T08:33:57;98820.81;;;15.12;38.34
21594;BME280;10959;51.328;7.322;2023-04-06T08:36:24;98806.09;;;15.29;37.73
21594;BME280;10959;51.328;7.322;2023-04-06T08:38:50;98815.25;;;15.41;37.71
21594;BME280;10959;51.328;7.322;2023-04-06T08:41:17;98809.31;;;15.74;38.20
21594;BME280;10959;51.328;7.322;2023-04-06T08:43:47;98810.06;;;16.15;37.89
21594;BME280;10959;51.328;7.322;2023-04-06T08:46:14;98807.22;;;16.29;37.09
21594;BME280;10959;51.328;7.322;2023-04-06T08:48:42;98802.25;;;15.97;36.92
21594;BME280;10959;51.328;7.322;2023-04-06T08:51:09;98806.38;;;15.90;37.41
21594;BME280;10959;51.328;7.322;2023-04-06T08:53:36;98809.44;;;15.98;37.65
21594;BME280;10959;51.328;7.322;2023-04-06T08:56:04;98814.41;;;15.92;36.59
21594;BME280;10959;51.328;7.322;2023-04-06T08:58:34;98804.31;;;16.06;37.82
21594;BME280;10959;51.328;7.322;2023-04-06T09:01:02;98802.66;;;16.17;37.08
21594;BME280;10959;51.328;7.322;2023-04-06T09:03:33;98806.13;;;16.19;37.63
21594;BME280;10959;51.328;7.322;2023-04-06T09:06:02;98811.81;;;15.90;36.47
21594;BME280;10959;51.328;7.322;2023-04-06T09:08:29;98808.69;;;15.96;37.46
21594;BME280;10959;51.328;7.322;2023-04-06T09:10:56;98807.47;;;16.00;37.66
21594;BME280;10959;51.328;7.322;2023-04-06T09:13:22;98805.75;;;15.99;37.43
21594;BME280;10959;51.328;7.322;2023-04-06T09:15:58;98805.09;;;15.83;36.64
21594;BME280;10959;51.328;7.322;2023-04-06T09:18:28;98807.91;;;15.94;36.96
21594;BME280;10959;51.328;7.322;2023-04-06T09:20:59;98800.09;;;15.89;36.00
21594;BME280;10959;51.328;7.322;2023-04-06T09:23:27;98797.72;;;15.98;36.43
21594;BME280;10959;51.328;7.322;2023-04-06T09:26:05;98799.66;;;15.83;36.81
21594;BME280;10959;51.328;7.322;2023-04-06T09:28:41;98790.97;;;15.78;36.28
21594;BME280;10959;51.328;7.322;2023-04-06T09:31:08;98804.84;;;15.73;36.13
21594;BME280;10959;51.328;7.322;2023-04-06T09:33:37;98799.25;;;15.89;36.84
21594;BME280;10959;51.328;7.322;2023-04-06T09:36:04;98794.44;;;15.93;36.39
21594;BME280;10959;51.328;7.322;2023-04-06T09:38:32;98799.00;;;15.92;36.65
21594;BME280;10959;51.328;7.322;2023-04-06T09:40:58;98798.56;;;15.98;36.95
21594;BME280;10959;51.328;7.322;2023-04-06T09:43:25;98794.66;;;16.02;37.04
21594;BME280;10959;51.328;7.322;2023-04-06T09:45:52;98799.00;;;16.05;36.29
21594;BME280;10959;51.328;7.322;2023-04-06T09:48:20;98795.72;;;16.13;36.78
21594;BME280;10959;51.328;7.322;2023-04-06T09:50:49;98795.72;;;16.13;35.59
21594;BME280;10959;51.328;7.322;2023-04-06T09:53:17;98785.91;;;16.23;36.53
21594;BME280;10959;51.328;7.322;2023-04-06T09:55:49;98801.28;;;15.98;35.72
21594;BME280;10959;51.328;7.322;2023-04-06T09:58:19;98797.59;;;15.99;34.77
21594;BME280;10959;51.328;7.322;2023-04-06T10:00:57;98797.50;;;15.88;36.11
21594;BME280;10959;51.328;7.322;2023-04-06T10:03:30;98787.25;;;16.04;35.82
21594;BME280;10959;51.328;7.322;2023-04-06T10:06:05;98786.78;;;16.23;36.62
21594;BME280;10959;51.328;7.322;2023-04-06T10:08:33;98785.25;;;16.32;36.86
21594;BME280;10959;51.328;7.322;2023-04-06T10:11:02;98795.41;;;16.41;36.19
21594;BME280;10959;51.328;7.322;2023-04-06T10:13:28;98784.97;;;16.48;36.71
21594;BME280;10959;51.328;7.322;2023-04-06T10:15:55;98776.75;;;16.61;37.18
21594;BME280;10959;51.328;7.322;2023-04-06T10:18:22;98781.56;;;16.82;37.26
21594;BME280;10959;51.328;7.322;2023-04-06T10:20:51;98781.13;;;16.88;35.66
21594;BME280;10959;51.328;7.322;2023-04-06T10:23:24;98784.13;;;16.96;36.15
21594;BME280;10959;51.328;7.322;2023-04-06T10:25:53;98779.97;;;17.03;35.32
21594;BME280;10959;51.328;7.322;2023-04-06T10:28:22;98786.88;;;17.07;35.29
21594;BME280;10959;51.328;7.322;2023-04-06T10:30:49;98788.16;;;17.15;35.86
21594;BME280;10959;51.328;7.322;2023-04-06T10:33:16;98791.94;;;17.36;35.75
21594;BME280;10959;51.328;7.322;2023-04-06T10:35:43;98784.31;;;17.53;35.84
21594;BME280;10959;51.328;7.322;2023-04-06T10:38:10;98784.72;;;17.71;35.30
21594;BME280;10959;51.328;7.322;2023-04-06T10:40:40;98791.31;;;17.91;35.20
21594;BME280;10959;51.328;7.322;2023-04-06T10:43:09;98791.53;;;17.88;34.39
21594;BME280;10959;51.328;7.322;2023-04-06T10:45:37;98786.81;;;17.78;33.79
21594;BME280;10959;51.328;7.322;2023-04-06T10:48:12;98785.09;;;17.66;33.91
21594;BME280;10959;51.328;7.322;2023-04-06T10:50:40;98784.69;;;17.59;33.55
21594;BME280;10959;51.328;7.322;2023-04-06T10:53:07;98775.41;;;17.51;33.75
21594;BME280;10959;51.328;7.322;2023-04-06T10:55:34;98776.03;;;17.66;35.07
21594;BME280;10959;51.328;7.322;2023-04-06T10:58:00;98770.22;;;17.82;35.55
21594;BME280;10959;51.328;7.322;2023-04-06T11:00:27;98773.59;;;17.96;34.43
21594;BME280;10959;51.328;7.322;2023-04-06T11:03:00;98769.75;;;18.10;34.49
21594;BME280;10959;51.328;7.322;2023-04-06T11:05:27;98767.50;;;18.38;33.69
21594;BME280;10959;51.328;7.322;2023-04-06T11:07:53;98759.91;;;18.42;33.54
21594;BME280;10959;51.328;7.322;2023-04-06T11:10:21;98761.50;;;18.56;33.52
21594;BME280;10959;51.328;7.322;2023-04-06T11:12:53;98763.25;;;18.45;32.83
21594;BME280;10959;51.328;7.322;2023-04-06T11:15:19;98773.38;;;18.55;33.42
21594;BME280;10959;51.328;7.322;2023-04-06T11:17:46;98761.41;;;18.35;33.59
21594;BME280;10959;51.328;7.322;2023-04-06T11:20:15;98754.56;;;18.52;33.42
21594;BME280;10959;51.328;7.322;2023-04-06T11:22:49;98767.72;;;18.58;33.05
21594;BME280;10959;51.328;7.322;2023-04-06T11:25:16;98758.19;;;18.85;33.07
21594;BME280;10959;51.328;7.322;2023-04-06T11:27:43;98768.75;;;19.10;33.29
21594;BME280;10959;51.328;7.322;2023-04-06T11:30:10;98753.22;;;19.22;34.04
21594;BME280;10959;51.328;7.322;2023-04-06T11:32:39;98754.78;;;19.25;33.52
21594;BME280;10959;51.328;7.322;2023-04-06T11:35:07;98758.00;;;19.30;33.14
21594;BME280;10959;51.328;7.322;2023-04-06T11:37:35;98751.06;;;19.26;32.81
21594;BME280;10959;51.328;7.322;2023-04-06T11:40:01;98758.13;;;19.07;32.60
21594;BME280;10959;51.328;7.322;2023-04-06T11:42:28;98748.00;;;18.98;32.91
21594;BME280;10959;51.328;7.322;2023-04-06T11:44:56;98745.31;;;18.87;32.78
21594;BME280;10959;51.328;7.322;2023-04-06T11:47:27;98748.28;;;18.83;33.60
21594;BME280;10959;51.328;7.322;2023-04-06T11:49:54;98744.66;;;18.62;33.40
21594;BME280;10959;51.328;7.322;2023-04-06T11:52:23;98748.84;;;18.55;32.83
21594;BME280;10959;51.328;7.322;2023-04-06T11:54:52;98737.06;;;18.65;33.79
21594;BME280;10959;51.328;7.322;2023-04-06T11:57:21;98741.81;;;18.85;34.32
21594;BME280;10959;51.328;7.322;2023-04-06T11:59:48;98744.53;;;18.96;34.14
21594;BME280;10959;51.328;7.322;2023-04-06T12:02:15;98744.19;;;18.89;34.06
21594;BME280;10959;51.328;7.322;2023-04-06T12:04:41;98745.06;;;18.90;34.27
21594;BME280;10959;51.328;7.322;2023-04-06T12:07:07;98743.66;;;18.95;34.68
21594;BME280;10959;51.328;7.322;2023-04-06T12:09:34;98733.59;;;18.96;33.94
21594;BME280;10959;51.328;7.322;2023-04-06T12:12:03;98737.91;;;18.66;32.90
21594;BME280;10959;51.328;7.322;2023-04-06T12:14:30;98724.06;;;18.58;33.85
21594;BME280;10959;51.328;7.322;2023-04-06T12:16:56;98724.72;;;18.39;33.59
21594;BME280;10959;51.328;7.322;2023-04-06T12:19:23;98738.75;;;18.34;32.89
21594;BME280;10959;51.328;7.322;2023-04-06T12:21:51;98734.41;;;18.31;34.18
21594;BME280;10959;51.328;7.322;2023-04-06T12:24:17;98736.16;;;18.33;34.49
21594;BME280;10959;51.328;7.322;2023-04-06T12:26:44;98733.03;;;18.37;35.07
21594;BME280;10959;51.328;7.322;2023-04-06T12:29:12;98719.38;;;18.48;35.32
21594;BME280;10959;51.328;7.322;2023-04-06T12:31:39;98728.50;;;18.59;35.05
21594;BME280;10959;51.328;7.322;2023-04-06T12:34:06;98715.84;;;18.69;36.25
21594;BME280;10959;51.328;7.322;2023-04-06T12:36:33;98727.72;;;18.79;35.37
21594;BME280;10959;51.328;7.322;2023-04-06T12:39:00;98721.72;;;18.86;35.53
21594;BME280;10959;51.328;7.322;2023-04-06T12:41:28;98724.00;;;18.80;34.55
21594;BME280;10959;51.328;7.322;2023-04-06T12:43:55;98729.69;;;18.77;35.16
21594;BME280;10959;51.328;7.322;2023-04-06T12:46:23;98717.38;;;18.83;35.28
21594;BME280;10959;51.328;7.322;2023-04-06T12:48:50;98707.13;;;18.87;36.00
21594;BME280;10959;51.328;7.322;2023-04-06T12:51:18;98706.66;;;18.70;35.47
21594;BME280;10959;51.328;7.322;2023-04-06T12:53:45;98720.78;;;18.75;35.79
21594;BME280;10959;51.328;7.322;2023-04-06T12:56:13;98717.06;;;18.76;35.35
21594;BME280;10959;51.328;7.322;2023-04-06T12:58:39;98710.13;;;18.72;34.93
21594;BME280;10959;51.328;7.322;2023-04-06T13:01:07;98713.13;;;18.69;35.52
21594;BME280;10959;51.328;7.322;2023-04-06T13:03:35;98712.94;;;18.50;35.35
21594;BME280;10959;51.328;7.322;2023-04-06T13:06:02;98705.03;;;18.46;34.91